createdAt,value
2023-01-29T00:02:07.906Z,919.00
2023-01-29T00:04:34.638Z,2148.25
2023-01-29T00:07:01.425Z,2237.60
2023-01-29T00:09:29.495Z,376.50
2023-01-29T00:11:56.206Z,1910.60
2023-01-29T00:14:22.877Z,1566.20
2023-01-29T00:16:49.569Z,635.00
2023-01-29T00:19:16.239Z,81.00
2023-01-29T00:21:42.848Z,936.00
2023-01-29T00:24:09.499Z,85.25
2023-01-29T00:26:37.557Z,922.25
2023-01-29T00:29:04.381Z,1330.40
2023-01-29T00:31:31.258Z,2650.50
2023-01-29T00:33:58.130Z,67.00
2023-01-29T00:36:26.422Z,2458.60
2023-01-29T00:38:56.344Z,1736.25
2023-01-29T00:41:23.041Z,1482.60
2023-01-29T00:43:51.097Z,1826.40
2023-01-29T00:46:17.785Z,294.50
2023-01-29T00:48:44.643Z,1737.25
2023-01-29T00:51:11.307Z,1008.80
2023-01-29T00:53:37.960Z,1652.00
2023-01-29T00:56:05.264Z,383.20
2023-01-29T00:58:31.911Z,3380.75
2023-01-29T01:01:01.025Z,1336.20
2023-01-29T01:03:28.355Z,700.20
2023-01-29T01:06:05.258Z,34.50
2023-01-29T01:08:32.304Z,50.67
2023-01-29T01:11:01.407Z,42.75
2023-01-29T01:13:28.221Z,25.50
2023-01-29T01:15:55.497Z,309.40
2023-01-29T01:18:23.581Z,833.20
2023-01-29T01:20:50.249Z,46.67
2023-01-29T01:23:17.293Z,31.25
2023-01-29T01:25:43.970Z,454.00
2023-01-29T01:28:10.683Z,1649.60
2023-01-29T01:30:37.394Z,713.25
2023-01-29T01:33:04.116Z,1439.50
2023-01-29T01:35:32.230Z,1975.60
2023-01-29T01:37:58.917Z,1550.80
2023-01-29T01:40:26.677Z,938.00
2023-01-29T01:42:56.201Z,1829.80
2023-01-29T01:45:29.320Z,41.75
2023-01-29T01:48:01.174Z,1314.40
2023-01-29T01:50:35.063Z,830.50
2023-01-29T01:53:06.478Z,1517.25
2023-01-29T01:55:35.204Z,1648.40
2023-01-29T01:58:07.363Z,444.60
2023-01-29T02:00:34.568Z,1435.50
2023-01-29T02:03:02.332Z,2055.20
2023-01-29T02:05:30.737Z,1412.80
2023-01-29T02:07:59.688Z,1331.50
2023-01-29T02:10:30.699Z,2070.40
2023-01-29T02:12:57.344Z,1023.00
2023-01-29T02:15:24.038Z,1641.20
2023-01-29T02:17:50.940Z,837.60
2023-01-29T02:20:21.494Z,206.75
2023-01-29T02:23:15.825Z,1132.50
2023-01-29T02:26:04.323Z,1564.20
2023-01-29T02:28:43.876Z,915.00
2023-01-29T02:31:24.177Z,92.00
2023-01-29T02:34:01.186Z,575.60
2023-01-29T02:36:35.773Z,504.60
2023-01-29T02:39:13.118Z,44.67
2023-01-29T02:41:45.507Z,37.00
2023-01-29T02:44:18.849Z,34.50
2023-01-29T02:46:53.135Z,2185.00
2023-01-29T02:49:24.882Z,791.75
2023-01-29T02:52:00.459Z,2706.60
2023-01-29T02:54:34.828Z,489.60
2023-01-29T02:57:07.278Z,90.50
2023-01-29T02:59:40.727Z,1005.80
2023-01-29T03:02:12.172Z,1206.00
2023-01-29T03:04:43.839Z,336.60
2023-01-29T03:07:17.245Z,1456.80
2023-01-29T03:09:49.449Z,1315.25
2023-01-29T03:12:23.283Z,92.20
2023-01-29T03:14:51.818Z,160.00
2023-01-29T03:17:21.139Z,16.50
2023-01-29T03:19:49.232Z,485.00
2023-01-29T03:22:18.260Z,90.50
2023-01-29T03:24:48.854Z,84.60
2023-01-29T03:27:20.558Z,28.00
2023-01-29T03:29:50.524Z,911.80
2023-01-29T03:32:21.522Z,901.00
2023-01-29T03:34:50.357Z,93.25
2023-01-29T03:37:23.869Z,1466.60
2023-01-29T03:39:50.569Z,662.00
2023-01-29T03:42:25.062Z,654.00
2023-01-29T03:44:58.148Z,1221.60
2023-01-29T03:47:38.451Z,1321.20
2023-01-29T03:50:10.470Z,2134.25
2023-01-29T03:52:42.750Z,706.00
2023-01-29T03:55:15.365Z,1471.20
2023-01-29T03:57:47.141Z,417.60
2023-01-29T04:00:18.794Z,662.40
2023-01-29T04:02:55.417Z,704.75
2023-01-29T04:05:27.021Z,1203.25
2023-01-29T04:08:00.169Z,1875.80
2023-01-29T04:10:27.711Z,908.80
2023-01-29T04:12:58.777Z,68.00
2023-01-29T04:15:29.841Z,1122.40
2023-01-29T04:17:58.021Z,1885.80
2023-01-29T04:20:25.711Z,282.00
2023-01-29T04:22:53.424Z,21.00
2023-01-29T04:25:22.759Z,13.50
2023-01-29T04:27:58.519Z,10.25
2023-01-29T04:30:32.500Z,40.00
2023-01-29T04:33:11.522Z,1056.20
2023-01-29T04:35:54.489Z,75.25
2023-01-29T04:38:33.723Z,479.60
2023-01-29T04:41:08.816Z,230.60
2023-01-29T04:43:41.498Z,485.60
2023-01-29T04:46:15.838Z,652.40
2023-01-29T04:48:58.147Z,1308.20
2023-01-29T04:51:34.492Z,1526.25
2023-01-29T04:54:09.845Z,490.00
2023-01-29T04:56:42.927Z,993.40
2023-01-29T04:59:14.200Z,418.00
2023-01-29T05:01:41.283Z,1237.00
2023-01-29T05:04:13.064Z,96.60
2023-01-29T05:06:41.579Z,652.60
2023-01-29T05:09:09.516Z,95.00
2023-01-29T05:11:37.099Z,1406.40
2023-01-29T05:14:07.041Z,1546.80
2023-01-29T05:16:39.936Z,1241.40
2023-01-29T05:19:06.629Z,748.60
2023-01-29T05:21:34.668Z,1715.80
2023-01-29T05:24:10.684Z,166.80
2023-01-29T05:26:37.838Z,414.60
2023-01-29T05:29:05.515Z,498.60
2023-01-29T05:31:32.347Z,410.80
2023-01-29T05:33:59.065Z,744.40
2023-01-29T05:36:25.816Z,912.20
2023-01-29T05:38:53.954Z,168.60
2023-01-29T05:41:20.641Z,1234.20
2023-01-29T05:43:47.366Z,61.67
2023-01-29T05:46:14.157Z,905.00
2023-01-29T05:48:40.813Z,745.80
2023-01-29T05:51:07.554Z,44.50
2023-01-29T05:53:34.328Z,69.80
2023-01-29T05:56:03.343Z,1638.60
2023-01-29T05:58:30.798Z,68.00
2023-01-29T06:00:57.848Z,1494.60
2023-01-29T06:03:24.549Z,468.25
2023-01-29T06:05:51.224Z,39.50
2023-01-29T06:08:17.939Z,67.67
2023-01-29T06:10:44.626Z,34.75
2023-01-29T06:13:12.815Z,78.33
2023-01-29T06:15:39.906Z,53.75
2023-01-29T06:18:06.599Z,465.00
2023-01-29T06:20:33.324Z,652.80
2023-01-29T06:23:00.359Z,1299.25
2023-01-29T06:25:27.075Z,895.20
2023-01-29T06:27:53.751Z,233.50
2023-01-29T06:30:22.316Z,30.75
2023-01-29T06:32:49.086Z,1236.60
2023-01-29T06:35:15.938Z,391.20
2023-01-29T06:37:42.782Z,2140.00
2023-01-29T06:40:10.806Z,32.75
2023-01-29T06:42:37.487Z,1318.80
2023-01-29T06:45:04.876Z,3512.80
2023-01-29T06:47:32.960Z,666.00
2023-01-29T06:49:59.989Z,25.00
2023-01-29T06:52:26.705Z,253.40
2023-01-29T06:54:53.439Z,1553.40
2023-01-29T06:57:20.292Z,34.20
2023-01-29T06:59:46.970Z,1698.40
2023-01-29T07:02:14.153Z,74.67
2023-01-29T07:04:42.226Z,56.25
2023-01-29T07:07:09.098Z,889.50
2023-01-29T07:09:35.738Z,1300.80
2023-01-29T07:12:02.411Z,25.50
2023-01-29T07:14:29.115Z,21.25
2023-01-29T07:16:55.805Z,23.25
2023-01-29T07:19:22.546Z,30.25
2023-01-29T07:21:50.667Z,66.00
2023-01-29T07:24:17.398Z,20.75
2023-01-29T07:26:44.083Z,37.25
2023-01-29T07:29:10.965Z,18.50
2023-01-29T07:31:37.773Z,21.75
2023-01-29T07:34:04.573Z,15.50
2023-01-29T07:36:31.315Z,67.33
2023-01-29T07:38:59.517Z,468.33
2023-01-29T07:41:26.226Z,16.50
2023-01-29T07:43:52.928Z,878.67
2023-01-29T07:46:19.635Z,40.33
2023-01-29T07:48:46.336Z,27.75
2023-01-29T07:51:13.026Z,22.50
2023-01-29T07:53:39.750Z,41.00
2023-01-29T07:56:08.213Z,14.75
2023-01-29T07:58:36.658Z,15.75
2023-01-29T08:01:05.959Z,25.00
2023-01-29T08:03:32.624Z,16.25
2023-01-29T08:05:59.360Z,11.00
2023-01-29T08:08:26.045Z,15.50
2023-01-29T08:10:52.752Z,11.00
2023-01-29T08:13:21.051Z,12.00
2023-01-29T08:15:47.791Z,12.50
2023-01-29T08:18:14.943Z,26.00
2023-01-29T08:20:41.746Z,19.25
2023-01-29T08:23:12.573Z,12.75
2023-01-29T08:25:39.334Z,22.25
2023-01-29T08:28:06.141Z,330.75
2023-01-29T08:30:35.217Z,17.25
2023-01-29T08:33:04.234Z,27.50
2023-01-29T08:35:31.080Z,327.00
2023-01-29T08:37:59.249Z,38.67
2023-01-29T08:40:26.706Z,39.25
2023-01-29T08:42:58.239Z,44.00
2023-01-29T08:45:27.111Z,38.50
2023-01-29T08:47:55.184Z,34.25
2023-01-29T08:50:21.958Z,53.25
2023-01-29T08:52:48.606Z,46.25
2023-01-29T08:55:15.675Z,731.00
2023-01-29T08:57:42.911Z,59.25
2023-01-29T09:00:10.742Z,43.25
2023-01-29T09:02:37.794Z,72.50
2023-01-29T09:05:07.385Z,64.00
2023-01-29T09:07:34.129Z,31.25
2023-01-29T09:10:00.849Z,35.50
2023-01-29T09:12:27.680Z,76.50
2023-01-29T09:14:54.405Z,720.67
2023-01-29T09:17:21.225Z,62.00
2023-01-29T09:19:47.945Z,60.67
2023-01-29T09:22:16.013Z,25.50
2023-01-29T09:24:42.716Z,62.33
2023-01-29T09:27:09.441Z,446.67
2023-01-29T09:29:36.141Z,28.00
2023-01-29T09:32:03.663Z,21.75
2023-01-29T09:34:30.587Z,27.00
2023-01-29T09:36:57.281Z,23.75
2023-01-29T09:39:25.591Z,24.25
2023-01-29T09:41:59.944Z,26.25
2023-01-29T09:44:39.868Z,20.75
2023-01-29T09:47:11.637Z,22.25
2023-01-29T09:49:43.454Z,21.25
2023-01-29T09:52:16.237Z,23.00
2023-01-29T09:54:53.235Z,17.75
2023-01-29T09:57:29.085Z,28.75
2023-01-29T09:59:55.872Z,40.33
2023-01-29T10:02:49.497Z,9.00
2023-01-29T10:05:39.079Z,419.25
2023-01-29T10:08:36.526Z,12.25
2023-01-29T10:11:17.596Z,6.75
2023-01-29T10:13:52.111Z,24.00
2023-01-29T10:16:31.408Z,5.00
2023-01-29T10:19:30.122Z,24.00
2023-01-29T10:22:14.098Z,19.00
2023-01-29T10:24:52.559Z,15.00
2023-01-29T10:27:20.662Z,17.25
2023-01-29T10:29:52.547Z,19.00
2023-01-29T10:32:21.755Z,6.50
2023-01-29T10:34:53.186Z,13.25
2023-01-29T10:37:23.488Z,9.00
2023-01-29T10:39:50.926Z,14.50
2023-01-29T10:42:26.532Z,16.75
2023-01-29T10:45:08.957Z,9.25
2023-01-29T10:47:54.465Z,22.50
2023-01-29T10:50:36.340Z,11.50
2023-01-29T10:53:19.782Z,13.00
2023-01-29T10:55:56.899Z,18.75
2023-01-29T10:58:35.051Z,735.50
2023-01-29T11:01:01.906Z,331.25
2023-01-29T11:03:30.576Z,15.00
2023-01-29T11:06:07.509Z,10.50
2023-01-29T11:08:40.190Z,326.00
2023-01-29T11:11:09.149Z,55.50
2023-01-29T11:13:43.470Z,626.75
2023-01-29T11:16:10.622Z,52.50
2023-01-29T11:18:57.802Z,49.50
2023-01-29T11:21:25.991Z,41.67
2023-01-29T11:24:06.538Z,6.75
2023-01-29T11:26:38.305Z,34.33
2023-01-29T11:29:43.962Z,39.33
2023-01-29T11:32:14.481Z,14.25
2023-01-29T11:34:57.927Z,21.50
2023-01-29T11:37:33.070Z,8.25
2023-01-29T11:39:59.799Z,412.00
2023-01-29T11:42:31.298Z,10.75
2023-01-29T11:45:00.136Z,9.25
2023-01-29T11:47:29.187Z,443.67
2023-01-29T11:49:57.969Z,14.25
2023-01-29T11:52:27.628Z,22.50
2023-01-29T11:54:59.883Z,11.75
2023-01-29T11:57:30.246Z,16.50
2023-01-29T12:00:02.563Z,5.25
2023-01-29T12:02:36.810Z,18.00
2023-01-29T12:05:13.975Z,17.25
2023-01-29T12:07:42.840Z,22.00
2023-01-29T12:10:30.780Z,25.50
2023-01-29T12:13:05.162Z,12.75
2023-01-29T12:15:34.696Z,23.25
2023-01-29T12:18:12.070Z,25.25
2023-01-29T12:20:44.097Z,1.00
2023-01-29T12:23:27.578Z,2.50
2023-01-29T12:26:01.152Z,2.00
2023-01-29T12:28:44.427Z,1.25
2023-01-29T12:31:29.450Z,15.25
2023-01-29T12:34:04.355Z,10.50
2023-01-29T12:36:38.659Z,7.50
2023-01-29T12:39:05.594Z,0.00
2023-01-29T12:41:44.518Z,2.00
2023-01-29T12:44:18.202Z,1.50
2023-01-29T12:46:50.416Z,810.00
2023-01-29T12:49:22.126Z,0.25
2023-01-29T12:51:55.117Z,16.50
2023-01-29T12:54:31.749Z,30.75
2023-01-29T12:57:02.734Z,16.25
2023-01-29T12:59:36.343Z,13.75
2023-01-29T13:02:10.142Z,11.75
2023-01-29T13:04:41.791Z,21.75
2023-01-29T13:07:14.583Z,28.50
2023-01-29T13:09:46.449Z,418.50
2023-01-29T13:12:16.560Z,11.25
2023-01-29T13:14:48.832Z,53.33
2023-01-29T13:17:25.402Z,57.33
2023-01-29T13:19:56.508Z,29.50
2023-01-29T13:22:26.149Z,196.00
2023-01-29T13:25:04.033Z,33.75
2023-01-29T13:27:34.111Z,35.25
2023-01-29T13:30:01.253Z,34.25
2023-01-29T13:32:30.609Z,615.25
2023-01-29T13:34:59.749Z,409.50
2023-01-29T13:37:32.313Z,15.50
2023-01-29T13:40:01.707Z,38.75
2023-01-29T13:42:40.062Z,23.75
2023-01-29T13:45:09.061Z,40.00
2023-01-29T13:47:39.456Z,6.25
2023-01-29T13:50:10.062Z,168.33
2023-01-29T13:52:40.160Z,3.00
2023-01-29T13:55:09.758Z,1.00
2023-01-29T13:57:56.005Z,7.50
2023-01-29T14:00:56.193Z,4.50
2023-01-29T14:04:09.947Z,413.00
2023-01-29T14:06:46.098Z,2.75
2023-01-29T14:09:55.280Z,9.50
2023-01-29T14:12:45.988Z,21.25
2023-01-29T14:15:22.180Z,3.25
2023-01-29T14:18:05.655Z,5.25
2023-01-29T14:20:45.713Z,10.00
2023-01-29T14:23:24.043Z,4.75
2023-01-29T14:25:51.105Z,11.25
2023-01-29T14:28:23.565Z,131.75
2023-01-29T14:30:51.389Z,34.00
2023-01-29T14:33:27.714Z,15.75
2023-01-29T14:35:57.673Z,0.25
2023-01-29T14:38:27.831Z,9.25
2023-01-29T14:41:05.787Z,10.50
2023-01-29T14:43:32.614Z,38.67
2023-01-29T14:46:43.925Z,2.50
2023-01-29T14:49:10.897Z,0.00
2023-01-29T14:51:43.229Z,296.75
2023-01-29T14:54:22.821Z,3.25
2023-01-29T14:56:58.061Z,5.25
2023-01-29T14:59:32.995Z,42.33
2023-01-29T15:02:05.107Z,297.25
2023-01-29T15:04:38.752Z,424.75
2023-01-29T15:07:19.335Z,639.75
2023-01-29T15:09:48.358Z,16.00
2023-01-29T15:12:23.483Z,35.00
2023-01-29T15:15:00.065Z,72.33
2023-01-29T15:17:30.816Z,418.33
2023-01-29T15:19:57.537Z,61.33
2023-01-29T15:22:25.652Z,17.00
2023-01-29T15:25:10.323Z,35.50
2023-01-29T15:27:42.048Z,32.33
2023-01-29T15:30:16.569Z,31.25
2023-01-29T15:32:43.498Z,57.33
2023-01-29T15:35:26.755Z,40.33
2023-01-29T15:38:03.612Z,39.67
2023-01-29T15:40:30.639Z,23.25
2023-01-29T15:42:57.311Z,3.00
2023-01-29T15:45:27.889Z,1.75
2023-01-29T15:48:00.379Z,36.25
2023-01-29T15:50:28.576Z,32.50
2023-01-29T15:52:57.695Z,129.00
2023-01-29T15:55:27.535Z,39.67
2023-01-29T15:57:55.022Z,54.75
2023-01-29T16:00:28.064Z,440.75
2023-01-29T16:02:59.363Z,53.25
2023-01-29T16:05:30.144Z,82.33
2023-01-29T16:07:59.311Z,79.00
2023-01-29T16:10:29.995Z,423.00
2023-01-29T16:12:58.324Z,30.50
2023-01-29T16:15:31.713Z,5.00
2023-01-29T16:17:59.280Z,4.00
2023-01-29T16:20:36.813Z,38.25
2023-01-29T16:23:05.679Z,35.00
2023-01-29T16:25:37.088Z,27.00
2023-01-29T16:28:05.780Z,418.33
2023-01-29T16:30:32.737Z,142.33
2023-01-29T16:33:04.676Z,15.50
2023-01-29T16:35:31.753Z,547.50
2023-01-29T16:38:02.948Z,29.75
2023-01-29T16:40:31.871Z,51.00
2023-01-29T16:43:42.424Z,51.25
2023-01-29T16:46:19.320Z,63.33
2023-01-29T16:48:47.237Z,51.50
2023-01-29T16:51:17.856Z,368.25
2023-01-29T16:53:55.917Z,60.00
2023-01-29T16:56:23.204Z,461.00
2023-01-29T16:58:52.404Z,453.67
2023-01-29T17:01:21.772Z,712.00
2023-01-29T17:03:56.604Z,77.67
2023-01-29T17:06:26.419Z,63.67
2023-01-29T17:08:53.631Z,65.67
2023-01-29T17:11:27.804Z,68.67
2023-01-29T17:13:57.471Z,434.67
2023-01-29T17:16:27.724Z,36.50
2023-01-29T17:18:54.909Z,29.25
2023-01-29T17:21:21.726Z,23.50
2023-01-29T17:23:48.487Z,26.50
2023-01-29T17:26:15.950Z,9.25
2023-01-29T17:28:43.269Z,30.50
2023-01-29T17:31:11.676Z,8.25
2023-01-29T17:33:41.324Z,26.25
2023-01-29T17:36:11.634Z,11.00
2023-01-29T17:38:38.304Z,11.25
2023-01-29T17:41:08.918Z,12.00
2023-01-29T17:43:35.690Z,33.50
2023-01-29T17:46:02.586Z,145.50
2023-01-29T17:48:31.158Z,1266.33
2023-01-29T17:51:02.014Z,50.25
2023-01-29T17:53:43.444Z,440.25
2023-01-29T17:56:16.539Z,25.00
2023-01-29T17:58:43.237Z,856.25
2023-01-29T18:01:09.928Z,184.00
2023-01-29T18:03:38.139Z,18.75
2023-01-29T18:06:07.230Z,70.00
2023-01-29T18:08:36.733Z,1171.50
2023-01-29T18:11:03.591Z,640.00
2023-01-29T18:13:30.336Z,1582.75
2023-01-29T18:15:57.162Z,35.75
2023-01-29T18:18:24.595Z,1363.20
2023-01-29T18:20:52.653Z,47.50
2023-01-29T18:23:19.452Z,18.50
2023-01-29T18:25:46.326Z,154.20
2023-01-29T18:28:15.417Z,16.00
2023-01-29T18:30:42.220Z,42.67
2023-01-29T18:33:09.208Z,7.00
2023-01-29T18:35:35.863Z,360.25
2023-01-29T18:38:04.045Z,68.33
2023-01-29T18:40:30.905Z,139.25
2023-01-29T18:42:57.653Z,33.00
2023-01-29T18:45:24.325Z,357.00
2023-01-29T18:47:51.035Z,744.50
2023-01-29T18:50:17.793Z,252.75
2023-01-29T18:52:44.895Z,7.75
2023-01-29T18:55:13.103Z,1214.20
2023-01-29T18:58:29.196Z,493.75
2023-01-29T19:00:26.460Z,885.25
2023-01-29T19:02:53.120Z,888.60
2023-01-29T19:05:20.141Z,1608.80
2023-01-29T19:07:46.941Z,462.20
2023-01-29T19:10:15.671Z,80.60
2023-01-29T19:12:42.437Z,1683.25
2023-01-29T19:15:10.483Z,43.33
2023-01-29T19:17:37.228Z,1681.75
2023-01-29T19:20:04.574Z,882.25
2023-01-29T19:22:31.802Z,553.00
2023-01-29T19:24:58.485Z,65.00
2023-01-29T19:27:26.594Z,19.50
2023-01-29T19:29:53.328Z,13.75
2023-01-29T19:32:20.138Z,18.50
2023-01-29T19:34:46.850Z,28.00
2023-01-29T19:37:13.572Z,16.00
2023-01-29T19:39:40.249Z,19.25
2023-01-29T19:42:06.891Z,12.50
2023-01-29T19:44:35.008Z,19.50
2023-01-29T19:47:01.877Z,424.25
2023-01-29T19:49:29.288Z,36.50
2023-01-29T19:51:56.052Z,13.50
2023-01-29T19:54:22.759Z,37.25
2023-01-29T19:56:49.576Z,23.50
2023-01-29T19:59:16.457Z,849.00
2023-01-29T20:01:44.554Z,1344.00
2023-01-29T20:04:11.615Z,1212.20
2023-01-29T20:06:38.357Z,2307.00
2023-01-29T20:09:05.542Z,2697.60
2023-01-29T20:11:32.930Z,317.40
2023-01-29T20:13:59.946Z,1984.40
2023-01-29T20:16:27.026Z,56.00
2023-01-29T20:18:55.131Z,1528.75
2023-01-29T20:21:41.471Z,537.00
2023-01-29T20:24:11.476Z,986.20
2023-01-29T20:26:38.305Z,2728.25
2023-01-29T20:29:05.031Z,1103.00
2023-01-29T20:31:31.817Z,2331.20
2023-01-29T20:33:59.884Z,841.50
2023-01-29T20:36:26.861Z,457.00
2023-01-29T20:38:53.535Z,344.75
2023-01-29T20:41:20.266Z,860.80
2023-01-29T20:43:47.520Z,57.75
2023-01-29T20:46:14.822Z,1493.40
2023-01-29T20:48:42.042Z,819.25
2023-01-29T20:51:12.079Z,32.00
2023-01-29T20:53:39.023Z,21.00
2023-01-29T20:56:06.728Z,65.50
2023-01-29T20:58:33.803Z,315.75
2023-01-29T21:01:00.637Z,29.75
2023-01-29T21:03:27.585Z,6.00
2023-01-29T21:05:54.357Z,33.25
2023-01-29T21:08:22.425Z,57.33
2023-01-29T21:10:49.653Z,429.00
2023-01-29T21:13:16.392Z,422.25
2023-01-29T21:15:43.106Z,341.00
2023-01-29T21:18:09.966Z,57.67
2023-01-29T21:20:36.700Z,60.00
2023-01-29T21:23:06.643Z,68.50
2023-01-29T21:25:35.129Z,604.00
2023-01-29T21:28:01.917Z,445.00
2023-01-29T21:30:28.610Z,1562.40
2023-01-29T21:32:55.367Z,2222.20
2023-01-29T21:35:22.125Z,2968.75
2023-01-29T21:37:48.804Z,547.75
2023-01-29T21:40:16.097Z,984.20
2023-01-29T21:42:44.835Z,2265.40
2023-01-29T21:45:11.587Z,1703.20
2023-01-29T21:47:38.304Z,625.00
2023-01-29T21:50:06.043Z,46.00
2023-01-29T21:52:32.779Z,1941.25
2023-01-29T21:54:59.489Z,1123.50
2023-01-29T21:57:26.236Z,1932.00
2023-01-29T21:59:54.426Z,1119.80
2023-01-29T22:02:22.590Z,1507.00
2023-01-29T22:04:49.479Z,3263.50
2023-01-29T22:07:16.478Z,3521.00
2023-01-29T22:09:43.427Z,3010.40
2023-01-29T22:12:10.540Z,3149.40
2023-01-29T22:14:37.259Z,3558.20
2023-01-29T22:17:05.400Z,2819.50
2023-01-29T22:19:32.144Z,3548.50
2023-01-29T22:21:58.770Z,3253.80
2023-01-29T22:24:25.465Z,2676.00
2023-01-29T22:26:52.219Z,2201.60
2023-01-29T22:29:18.968Z,671.60
2023-01-29T22:31:46.158Z,3521.80
2023-01-29T22:34:14.822Z,3564.25
2023-01-29T22:36:41.561Z,3412.60
2023-01-29T22:39:09.008Z,3934.60
2023-01-29T22:41:35.978Z,3185.20
2023-01-29T22:44:02.967Z,3942.40
2023-01-29T22:46:29.773Z,2935.20
2023-01-29T22:48:56.707Z,3872.40
2023-01-29T22:51:24.782Z,3109.80
2023-01-29T22:53:53.401Z,3529.20
2023-01-29T22:56:21.331Z,2734.60
2023-01-29T22:58:50.384Z,3275.80
2023-01-29T23:01:18.951Z,2997.00
2023-01-29T23:03:45.741Z,3380.20
2023-01-29T23:06:12.434Z,3074.75
2023-01-29T23:08:40.555Z,2341.75
2023-01-29T23:11:09.252Z,3390.00
2023-01-29T23:13:35.987Z,3448.00
2023-01-29T23:16:02.755Z,2044.25
2023-01-29T23:18:29.665Z,2367.25
2023-01-29T23:20:57.071Z,3840.80
2023-01-29T23:23:23.789Z,3197.00
2023-01-29T23:25:57.264Z,3684.75
2023-01-29T23:28:23.932Z,3975.50
2023-01-29T23:30:50.691Z,2941.80
2023-01-29T23:33:17.781Z,3196.20
2023-01-29T23:35:44.476Z,3851.00
2023-01-29T23:38:11.192Z,1301.80
2023-01-29T23:40:37.874Z,2822.60
2023-01-29T23:43:06.091Z,1066.40
2023-01-29T23:45:32.787Z,2414.50
2023-01-29T23:47:59.524Z,2213.00
2023-01-29T23:50:26.378Z,1655.00
2023-01-29T23:52:53.127Z,968.25
2023-01-29T23:55:19.839Z,1885.20
2023-01-29T23:57:46.567Z,1733.80
